Time;durP1;ratioP1;P1;durP2;ratioP2;P2;SDS_P1;SDS_P2;PMS_P1;PMS_P2;Temp;Humidity;BMP_temperature;BMP_pressure;BME280_temperature;BME280_humidity;BME280_pressure;Samples;Min_cycle;Max_cycle;Signal;HPM_P1;HPM_P2
2022/09/20 00:01:07;;;;;;;1.60;0.50;;;;;;;12.00;81.54;102413.94;5052129;27;96547;-31
2022/09/20 00:03:38;;;;;;;1.33;0.50;;;;;;;12.00;80.96;102411.22;5033534;27;96945;-31
2022/09/20 00:06:06;;;;;;;0.63;0.25;;;;;;;12.02;81.39;102409.34;5051727;27;99582;-30
2022/09/20 00:08:32;;;;;;;0.75;0.40;;;;;;;12.02;81.67;102391.22;5033507;27;101070;-30
2022/09/20 00:11:06;;;;;;;0.50;0.40;;;;;;;12.06;81.71;102405.53;5051809;27;96588;-32
2022/09/20 00:13:33;;;;;;;3.80;0.70;;;;;;;12.09;81.42;102410.84;5033794;27;96654;-31
2022/09/20 00:15:58;;;;;;;1.98;0.47;;;;;;;12.10;81.20;102416.19;5051586;27;98046;-30
2022/09/20 00:18:25;;;;;;;2.88;0.43;;;;;;;12.09;80.94;102397.25;5033399;27;98860;-30
2022/09/20 00:20:51;;;;;;;0.90;0.47;;;;;;;12.14;81.16;102406.09;5050972;27;96568;-30
2022/09/20 00:23:17;;;;;;;0.82;0.43;;;;;;;12.14;81.72;102394.34;5051551;27;96847;-30
2022/09/20 00:25:43;;;;;;;0.35;0.30;;;;;;;12.14;81.42;102402.50;5033335;27;100975;-31
2022/09/20 00:28:09;;;;;;;1.52;0.57;;;;;;;12.11;81.16;102401.69;5053073;27;108368;-30
2022/09/20 00:30:35;;;;;;;0.30;0.30;;;;;;;12.11;81.26;102398.09;5055107;27;96634;-30
2022/09/20 00:33:01;;;;;;;0.25;0.20;;;;;;;12.13;81.31;102392.56;5036890;27;96898;-30
2022/09/20 00:35:28;;;;;;;3.83;1.02;;;;;;;12.11;81.72;102392.66;5054945;27;99582;-30
2022/09/20 00:37:54;;;;;;;2.65;0.38;;;;;;;12.13;81.33;102401.59;5036860;27;100833;-31
2022/09/20 00:40:21;;;;;;;2.50;0.45;;;;;;;12.11;81.09;102401.69;5054958;27;96558;-30
2022/09/20 00:42:48;;;;;;;0.95;0.50;;;;;;;12.11;81.39;102407.13;5036591;27;96813;-30
2022/09/20 00:45:25;;;;;;;3.10;0.60;;;;;;;12.11;80.77;102415.25;5035696;27;102923;-31
2022/09/20 00:48:11;;;;;;;1.55;0.30;;;;;;;12.13;81.03;102409.75;5036515;27;99030;-31
2022/09/20 00:50:50;;;;;;;0.70;0.32;;;;;;;12.18;80.99;102423.13;5036762;27;96679;-30
2022/09/20 00:53:20;;;;;;;3.17;0.73;;;;;;;12.15;81.08;102424.16;5036521;27;96717;-32
2022/09/20 00:55:55;;;;;;;0.88;0.55;;;;;;;12.18;81.18;102436.72;5036216;27;101131;-32
2022/09/20 00:58:24;;;;;;;0.75;0.47;;;;;;;12.19;81.40;102438.50;5036352;27;101149;-32
2022/09/20 01:00:52;;;;;;;2.30;0.63;;;;;;;12.16;81.40;102434.09;5036403;27;96562;-32
2022/09/20 01:03:21;;;;;;;0.88;0.70;;;;;;;12.19;81.70;102438.50;5036895;27;96863;-30
2022/09/20 01:05:49;;;;;;;1.23;0.40;;;;;;;12.17;81.27;102434.97;5036076;27;100915;-30
2022/09/20 01:08:15;;;;;;;1.05;0.43;;;;;;;12.18;81.45;102423.13;5035780;27;101374;-30
2022/09/20 01:10:41;;;;;;;2.75;0.80;;;;;;;12.15;81.43;102423.28;5035605;27;97378;-30
2022/09/20 01:13:06;;;;;;;0.98;0.50;;;;;;;12.16;81.29;102427.78;5035608;27;98280;-32
2022/09/20 01:15:34;;;;;;;0.85;0.45;;;;;;;12.14;81.33;102416.09;5054457;27;97833;-31
2022/09/20 01:18:01;;;;;;;1.33;0.52;;;;;;;12.13;81.90;102414.31;5035854;27;100744;-30
2022/09/20 01:20:31;;;;;;;1.90;0.68;;;;;;;12.13;82.11;102409.75;5035725;27;96874;-31
2022/09/20 01:23:20;;;;;;;1.27;0.45;;;;;;;12.08;81.82;102401.81;5054371;27;96756;-30
2022/09/20 01:25:51;;;;;;;1.05;0.52;;;;;;;12.10;82.21;102415.31;5036137;27;101533;-31
2022/09/20 01:28:17;;;;;;;0.73;0.33;;;;;;;12.06;82.27;102398.28;5035884;27;100784;-30
2022/09/20 01:30:46;;;;;;;1.35;0.60;;;;;;;12.04;82.09;102405.59;5054512;27;96684;-30
2022/09/20 01:33:26;;;;;;;3.03;0.55;;;;;;;12.03;82.13;102402.94;5035797;27;97609;-31
2022/09/20 01:35:53;;;;;;;1.33;0.50;;;;;;;12.01;82.41;102407.56;5053897;27;97340;-31
2022/09/20 01:38:41;;;;;;;0.68;0.50;;;;;;;12.02;82.27;102412.06;5035222;27;101130;-31
2022/09/20 01:41:23;;;;;;;0.73;0.38;;;;;;;12.00;82.43;102411.22;5035844;27;96653;-30
2022/09/20 01:43:57;;;;;;;0.10;0.10;;;;;;;11.97;82.66;102408.66;5035794;27;96876;-31
2022/09/20 01:46:31;;;;;;;0.45;0.40;;;;;;;11.95;82.43;102407.84;5035555;27;100939;-31
2022/09/20 01:49:15;;;;;;;0.40;0.32;;;;;;;11.94;82.52;102406.06;5035406;27;100737;-31
2022/09/20 01:52:19;;;;;;;3.40;0.60;;;;;;;11.93;82.24;102418.75;5035689;27;96608;-30
2022/09/20 01:55:25;;;;;;;0.30;0.30;;;;;;;11.95;82.40;102422.28;5054503;27;96683;-31
2022/09/20 01:58:16;;;;;;;0.88;0.60;;;;;;;11.95;82.11;102418.69;5035397;27;100904;-31
2022/09/20 02:01:10;;;;;;;1.50;0.70;;;;;;;11.90;82.15;102419.75;5053908;27;97822;-32
2022/09/20 02:04:06;;;;;;;2.05;0.68;;;;;;;11.94;82.17;102420.53;5035122;27;97027;-30
2022/09/20 02:06:50;;;;;;;0.30;0.20;;;;;;;11.96;82.54;102423.16;5053739;27;96842;-31
2022/09/20 02:09:38;;;;;;;1.00;0.60;;;;;;;11.92;82.10;102421.53;5035127;27;100142;-30
2022/09/20 02:12:20;;;;;;;4.30;0.68;;;;;;;11.89;82.31;102404.44;5035156;27;101432;-31
2022/09/20 02:15:08;;;;;;;1.40;0.47;;;;;;;11.90;82.33;102408.03;5053638;27;96948;-31
2022/09/20 02:17:49;;;;;;;1.23;0.50;;;;;;;11.85;82.53;102402.75;5053470;27;96826;-30
2022/09/20 02:20:49;;;;;;;1.75;0.50;;;;;;;11.86;82.41;102401.78;5034490;27;100862;-31
2022/09/20 02:23:36;;;;;;;0.38;0.30;;;;;;;11.82;82.59;102399.25;5035245;27;101619;-31
2022/09/20 02:26:21;;;;;;;1.05;0.57;;;;;;;11.81;82.50;102398.38;5035073;27;96620;-30
2022/09/20 02:28:48;;;;;;;2.60;0.40;;;;;;;11.78;82.93;102398.53;5034948;27;96847;-31
2022/09/20 02:31:32;;;;;;;0.60;0.35;;;;;;;11.76;82.74;102397.72;5052653;27;98030;-31
2022/09/20 02:34:18;;;;;;;0.70;0.35;;;;;;;11.73;82.70;102397.84;5034600;27;100794;-31
2022/09/20 02:37:11;;;;;;;1.00;0.60;;;;;;;11.71;83.09;102401.56;5053531;27;96705;-30
2022/09/20 02:39:52;;;;;;;2.33;0.77;;;;;;;11.65;82.53;102394.53;5053415;27;96534;-33
2022/09/20 02:42:28;;;;;;;2.95;0.63;;;;;;;11.59;82.75;102392.97;5034805;27;100813;-31
2022/09/20 02:45:32;;;;;;;0.70;0.50;;;;;;;11.61;83.06;102401.94;5034753;27;101183;-30
2022/09/20 02:48:03;;;;;;;0.68;0.47;;;;;;;11.58;82.68;102393.91;5051799;27;96821;-31
2022/09/20 02:50:44;;;;;;;0.65;0.50;;;;;;;11.56;82.47;102397.63;5033963;27;96736;-31
2022/09/20 02:53:36;;;;;;;2.17;0.77;;;;;;;11.54;82.76;102403.13;5034391;27;101427;-30
2022/09/20 02:56:23;;;;;;;1.48;0.60;;;;;;;11.56;82.99;102403.97;5052741;27;98758;-30
2022/09/20 02:59:02;;;;;;;1.33;0.55;;;;;;;11.55;82.82;102404.91;5052387;27;96644;-30
2022/09/20 03:01:34;;;;;;;0.35;0.30;;;;;;;11.59;82.42;102405.66;5034509;27;96881;-31
2022/09/20 03:04:13;;;;;;;0.80;0.50;;;;;;;11.57;83.14;102404.84;5052867;27;98491;-31
2022/09/20 03:06:42;;;;;;;0.52;0.20;;;;;;;11.60;83.12;102399.28;5034221;27;100780;-31
2022/09/20 03:09:41;;;;;;;1.77;0.70;;;;;;;11.61;83.58;102398.34;5034402;27;96572;-30
2022/09/20 03:12:26;;;;;;;0.93;0.60;;;;;;;11.61;83.27;102399.22;5027239;27;96942;-30
2022/09/20 03:15:05;;;;;;;1.92;0.77;;;;;;;11.60;83.42;102399.28;5034038;27;100851;-32
2022/09/20 03:17:46;;;;;;;0.65;0.32;;;;;;;11.61;83.46;102395.63;5034669;27;100736;-30
2022/09/20 03:20:29;;;;;;;2.00;0.47;;;;;;;11.65;83.41;102392.69;5033676;27;96770;-30
2022/09/20 03:23:31;;;;;;;3.00;0.73;;;;;;;11.69;83.30;102397.06;5034354;27;96849;-30
2022/09/20 03:26:13;;;;;;;0.75;0.43;;;;;;;11.66;83.16;102394.50;5052114;27;97527;-30
2022/09/20 03:28:53;;;;;;;1.92;0.60;;;;;;;11.64;83.25;102390.06;5034040;27;100579;-31
2022/09/20 03:31:37;;;;;;;0.68;0.57;;;;;;;11.65;83.14;102397.25;5034066;27;96605;-30
2022/09/20 03:34:21;;;;;;;0.50;0.40;;;;;;;11.62;82.96;102403.69;5052383;27;96763;-30
2022/09/20 03:37:12;;;;;;;1.80;0.60;;;;;;;11.58;83.37;102395.75;5052298;27;97553;-30
2022/09/20 03:40:02;;;;;;;1.38;0.43;;;;;;;11.58;83.20;102395.75;5033739;27;100912;-30
2022/09/20 03:42:29;;;;;;;1.40;0.60;;;;;;;11.58;83.29;102399.34;5052444;27;96582;-30
2022/09/20 03:45:06;;;;;;;1.02;0.55;;;;;;;11.56;83.26;102394.91;5034281;27;96889;-30
2022/09/20 03:47:37;;;;;;;1.73;0.70;;;;;;;11.58;83.61;102398.47;5033687;27;100869;-31
2022/09/20 03:50:17;;;;;;;0.57;0.38;;;;;;;11.60;83.40;102402.00;5051975;27;99224;-30
2022/09/20 03:52:59;;;;;;;2.50;0.40;;;;;;;11.61;83.16;102398.34;5051318;27;96699;-30
2022/09/20 03:56:02;;;;;;;0.88;0.57;;;;;;;11.61;83.12;102401.06;5033984;27;97123;-30
2022/09/20 03:58:45;;;;;;;;;;;;;;;11.64;83.66;102400.94;5033974;27;100977;-31
2022/09/20 04:01:38;;;;;;;1.83;0.50;;;;;;;11.62;83.25;102394.69;5052636;27;97340;-30
2022/09/20 04:04:25;;;;;;;1.65;0.43;;;;;;;11.65;83.11;102397.25;5055440;27;96624;-30
2022/09/20 04:07:04;;;;;;;0.60;0.50;;;;;;;11.65;83.58;102392.69;5055648;27;96624;-32
2022/09/20 04:09:47;;;;;;;1.05;0.75;;;;;;;11.68;83.21;102399.88;5055504;27;97369;-30
2022/09/20 04:12:31;;;;;;;1.05;0.40;;;;;;;11.71;83.39;102409.72;5037176;27;101402;-30
2022/09/20 04:15:26;;;;;;;0.40;0.40;;;;;;;11.71;83.20;102413.31;5037137;27;96734;-31
2022/09/20 04:18:21;;;;;;;1.27;0.68;;;;;;;11.73;83.28;102416.84;5037211;27;96681;-30
2022/09/20 04:20:51;;;;;;;1.05;0.65;;;;;;;11.75;83.00;102414.03;5036032;27;100848;-31
2022/09/20 04:23:40;;;;;;;1.02;0.50;;;;;;;11.79;83.35;102426.56;5036866;27;101021;-30
2022/09/20 04:26:06;;;;;;;1.75;0.63;;;;;;;11.80;83.26;102431.94;5054792;27;96573;-31
2022/09/20 04:29:01;;;;;;;1.67;0.60;;;;;;;11.81;83.28;102430.97;5036737;27;96892;-33
2022/09/20 04:31:44;;;;;;;0.68;0.55;;;;;;;11.83;83.58;102434.50;5010931;27;99295;-30
2022/09/20 04:34:21;;;;;;;1.38;0.45;;;;;;;11.84;83.73;102429.97;5036736;27;101043;-30
2022/09/20 04:37:14;;;;;;;1.45;0.68;;;;;;;11.82;83.78;102435.47;5036895;27;96562;-31
2022/09/20 04:39:57;;;;;;;1.27;0.50;;;;;;;11.80;84.30;102433.78;5037178;27;96861;-32
2022/09/20 04:42:22;;;;;;;1.00;0.35;;;;;;;11.82;84.38;102431.84;5036609;27;101332;-30
2022/09/20 04:45:06;;;;;;;0.45;0.30;;;;;;;11.85;84.18;102437.19;5054841;27;97881;-30
2022/09/20 04:47:48;;;;;;;1.75;0.57;;;;;;;11.86;84.37;102434.38;5054447;27;96528;-29
2022/09/20 04:50:58;;;;;;;0.30;0.30;;;;;;;11.87;83.97;102436.19;5036675;27;97215;-31
2022/09/20 04:53:45;;;;;;;0.82;0.38;;;;;;;11.89;84.68;102439.72;4989657;27;100958;-30
2022/09/20 04:56:40;;;;;;;0.25;0.22;;;;;;;11.88;84.03;102443.38;5055011;27;97740;-30
2022/09/20 04:59:18;;;;;;;3.15;0.40;;;;;;;11.90;84.04;102438.78;5036540;27;96837;-30
2022/09/20 05:02:05;;;;;;;1.10;0.50;;;;;;;11.91;84.06;102434.22;5054582;27;96645;-30
2022/09/20 05:05:23;;;;;;;0.10;0.10;;;;;;;11.92;84.10;102438.72;5054670;27;98382;-31
2022/09/20 05:08:15;;;;;;;0.40;0.28;;;;;;;11.94;84.28;102444.06;4935866;28;100937;-30
2022/09/20 05:11:29;;;;;;;1.02;0.28;;;;;;;11.93;84.27;102451.34;4952504;28;96706;-31
2022/09/20 05:14:21;;;;;;;1.50;0.40;;;;;;;11.95;83.91;102443.13;5016984;27;96889;-30
2022/09/20 05:17:11;;;;;;;2.17;0.52;;;;;;;11.93;83.95;102445.03;5053728;27;99241;-30
2022/09/20 05:19:54;;;;;;;0.20;0.20;;;;;;;11.95;83.71;102451.28;5053830;27;102491;-31
2022/09/20 05:22:41;;;;;;;3.22;0.35;;;;;;;11.96;83.62;102450.31;5036068;27;96824;-30
2022/09/20 05:25:19;;;;;;;2.22;0.52;;;;;;;11.96;84.08;102453.03;5054607;27;96678;-31
2022/09/20 05:27:57;;;;;;;0.55;0.10;;;;;;;11.96;84.08;102450.31;5053986;27;97492;-30
2022/09/20 05:30:45;;;;;;;0.10;0.10;;;;;;;11.95;83.95;102452.16;5035735;27;101333;-30
2022/09/20 05:33:39;;;;;;;4.90;0.43;;;;;;;11.93;83.78;102451.34;5035823;27;96642;-30
2022/09/20 05:36:13;;;;;;;0.50;0.17;;;;;;;11.91;84.11;102436.94;5054382;27;96525;-30
2022/09/20 05:38:47;;;;;;;0.10;0.10;;;;;;;11.90;83.84;102443.31;5054299;27;97961;-31
2022/09/20 05:41:30;;;;;;;0.25;0.20;;;;;;;11.88;84.23;102446.09;5035743;27;101154;-31
2022/09/20 05:44:26;;;;;;;1.98;0.55;;;;;;;11.90;84.11;102444.22;5053554;27;97280;-30
2022/09/20 05:47:04;;;;;;;3.28;0.40;;;;;;;11.89;84.23;102445.16;5054601;27;96489;-31
2022/09/20 05:49:48;;;;;;;0.10;0.10;;;;;;;11.90;84.38;102443.31;5053806;27;97563;-30
2022/09/20 05:52:31;;;;;;;2.90;0.20;;;;;;;11.89;84.58;102446.97;5054205;27;97304;-31
2022/09/20 05:55:08;;;;;;;1.55;0.25;;;;;;;11.93;84.17;102453.19;5035418;27;96610;-30
2022/09/20 05:57:55;;;;;;;0.10;0.10;;;;;;;11.89;84.22;102446.97;5053717;27;96790;-30
2022/09/20 06:00:26;;;;;;;0.68;0.20;;;;;;;11.91;84.23;102439.66;5035354;27;100867;-30
2022/09/20 06:03:04;;;;;;;0.32;0.10;;;;;;;11.92;84.21;102448.66;5054448;27;97240;-31
2022/09/20 06:05:54;;;;;;;1.08;0.22;;;;;;;11.93;84.09;102445.91;5053849;27;96570;-30
2022/09/20 06:09:11;;;;;;;3.40;0.32;;;;;;;11.93;84.37;102450.47;5053564;27;96680;-30
2022/09/20 06:12:07;;;;;;;1.08;0.50;;;;;;;11.96;84.11;102453.03;5034728;27;101555;-31
2022/09/20 06:15:02;;;;;;;1.50;0.73;;;;;;;11.97;84.18;102462.97;5053531;27;98143;-32
2022/09/20 06:17:48;;;;;;;1.30;0.95;;;;;;;12.00;84.29;102451.97;5053394;27;96587;-30
2022/09/20 06:20:22;;;;;;;3.35;1.33;;;;;;;12.02;84.31;102455.50;5031749;27;96886;-31
2022/09/20 06:22:54;;;;;;;2.95;1.23;;;;;;;12.02;84.34;102456.38;5053204;27;97577;-31
2022/09/20 06:25:28;;;;;;;2.53;1.15;;;;;;;12.05;84.29;102450.81;5053228;27;97196;-30
2022/09/20 06:28:12;;;;;;;3.72;1.00;;;;;;;12.11;84.12;102464.16;5052271;27;96684;-31
2022/09/20 06:30:45;;;;;;;2.28;1.02;;;;;;;12.13;84.17;102458.63;5035147;27;96852;-31
2022/09/20 06:33:16;;;;;;;1.17;0.82;;;;;;;12.18;84.08;102462.06;5052816;27;97897;-31
2022/09/20 06:41:25;;;;;;;7.22;0.82;;;;;;;12.24;84.12;102466.34;5034842;27;100947;-31
2022/09/20 06:41:39;;;;;;;1.00;0.40;;;;;;;12.30;83.54;102461.53;5053234;27;96711;-31
2022/09/20 06:44:05;;;;;;;1.30;0.50;;;;;;;12.35;83.52;102469.50;5052938;27;98574;-31
2022/09/20 06:46:32;;;;;;;3.42;0.60;;;;;;;12.37;83.90;102461.25;5052915;27;99102;-31
2022/09/20 06:48:57;;;;;;;0.60;0.40;;;;;;;12.38;83.60;102457.63;5034717;27;96763;-30
2022/09/20 06:51:25;;;;;;;1.27;0.25;;;;;;;12.39;83.64;102462.09;5053140;27;96742;-31
2022/09/20 06:53:53;;;;;;;0.80;0.60;;;;;;;12.42;83.54;102471.00;5034116;27;101006;-30
2022/09/20 06:56:22;;;;;;;2.67;1.10;;;;;;;12.52;83.51;102464.22;5034863;27;100923;-31
2022/09/20 06:58:48;;;;;;;0.47;0.28;;;;;;;12.74;83.04;102479.56;5034560;27;96491;-32
2022/09/20 07:01:13;;;;;;;2.65;0.65;;;;;;;12.90;82.83;102477.94;5052765;27;96919;-32
2022/09/20 07:03:40;;;;;;;1.67;0.65;;;;;;;13.09;82.33;102479.81;5052021;27;99312;-31
2022/09/20 07:06:05;;;;;;;1.02;0.57;;;;;;;13.25;81.94;102471.81;5034386;27;98995;-31
2022/09/20 07:08:31;;;;;;;1.48;0.88;;;;;;;13.37;81.73;102477.63;5052392;27;96818;-30
2022/09/20 07:10:56;;;;;;;0.93;0.50;;;;;;;13.51;81.31;102474.22;5052485;27;96831;-30
2022/09/20 07:13:22;;;;;;;3.55;1.27;;;;;;;13.64;81.06;102474.53;5052064;27;105998;-30
2022/09/20 07:15:48;;;;;;;4.75;1.30;;;;;;;13.70;80.70;102476.06;5052347;27;98736;-31
2022/09/20 07:18:14;;;;;;;0.88;0.57;;;;;;;13.67;81.02;102476.22;5052427;27;96504;-30
2022/09/20 07:20:40;;;;;;;2.70;0.50;;;;;;;13.75;81.59;102476.72;5053094;27;96914;-30
2022/09/20 07:23:06;;;;;;;0.73;0.50;;;;;;;13.81;81.73;102476.44;5033827;27;100781;-30
2022/09/20 07:25:31;;;;;;;1.77;0.82;;;;;;;13.89;80.80;102471.47;5052181;27;99095;-31
2022/09/20 07:27:56;;;;;;;1.80;0.50;;;;;;;13.98;80.84;102479.19;5051825;27;96581;-30
2022/09/20 07:30:22;;;;;;;1.40;0.70;;;;;;;14.05;80.58;102476.16;5052356;27;98798;-30
2022/09/20 07:32:51;;;;;;;5.80;0.88;;;;;;;14.12;80.16;102467.59;5034064;27;98901;-30
2022/09/20 07:35:16;;;;;;;2.50;0.45;;;;;;;14.17;80.26;102479.16;5052140;27;99275;-31
2022/09/20 07:37:42;;;;;;;0.50;0.40;;;;;;;14.14;79.99;102478.44;5058093;27;96624;-29
2022/09/20 07:40:09;;;;;;;2.70;1.20;;;;;;;14.12;80.03;102480.34;5058901;27;96879;-29
2022/09/20 07:42:35;;;;;;;4.80;0.85;;;;;;;14.08;80.30;102481.47;5058983;27;97995;-29
2022/09/20 07:45:01;;;;;;;2.95;0.95;;;;;;;14.10;80.11;102487.72;5058818;27;114481;-30
2022/09/20 07:47:30;;;;;;;0.10;0.10;;;;;;;14.08;80.50;102495.97;5040700;27;96673;-31
2022/09/20 07:49:55;;;;;;;1.13;0.43;;;;;;;14.07;80.88;102488.75;5040631;27;96856;-29
2022/09/20 07:52:21;;;;;;;1.25;0.80;;;;;;;14.08;80.82;102493.22;5057947;27;99445;-31
2022/09/20 07:54:47;;;;;;;1.42;0.57;;;;;;;14.26;81.00;102494.16;5058531;27;98806;-30
2022/09/20 07:57:12;;;;;;;1.15;0.50;;;;;;;14.50;80.21;102507.50;5040505;27;96714;-30
2022/09/20 07:59:38;;;;;;;3.22;0.70;;;;;;;14.70;79.63;102517.41;5058955;27;96791;-29
2022/09/20 08:02:03;;;;;;;1.25;0.60;;;;;;;14.79;78.81;102501.44;5058917;27;98067;-30
2022/09/20 08:04:28;;;;;;;0.98;0.57;;;;;;;14.99;78.65;102515.84;5058904;27;97673;-30
2022/09/20 08:06:54;;;;;;;1.40;0.82;;;;;;;15.12;77.29;102505.19;5058458;27;96703;-29
2022/09/20 08:09:19;;;;;;;3.72;0.60;;;;;;;15.29;76.40;102507.88;5059149;27;96733;-30
2022/09/20 08:11:45;;;;;;;2.97;0.90;;;;;;;15.46;76.21;102506.94;5058471;27;103381;-30
2022/09/20 08:14:16;;;;;;;0.98;0.60;;;;;;;15.56;75.97;102510.03;5058421;27;97319;-30
2022/09/20 08:16:46;;;;;;;1.33;0.47;;;;;;;15.56;75.70;102510.91;5039774;27;97119;-33
2022/09/20 08:19:19;;;;;;;0.68;0.43;;;;;;;15.55;75.67;102519.19;5058022;27;96810;-32
2022/09/20 08:21:45;;;;;;;0.88;0.40;;;;;;;15.49;75.56;102517.69;5058308;27;99459;-29
2022/09/20 08:24:11;;;;;;;6.80;0.57;;;;;;;15.41;75.19;102528.16;5058452;27;97326;-30
2022/09/20 08:26:36;;;;;;;0.20;0.17;;;;;;;15.30;74.51;102528.72;5058474;27;96902;-30
2022/09/20 08:29:04;;;;;;;0.73;0.43;;;;;;;15.19;75.48;102529.31;5058912;27;96839;-30
2022/09/20 08:31:35;;;;;;;2.72;0.50;;;;;;;15.06;75.20;102526.38;5039948;27;101056;-31
2022/09/20 08:34:05;;;;;;;1.20;0.38;;;;;;;14.93;76.06;102532.56;5040124;27;100871;-30
2022/09/20 08:36:32;;;;;;;6.32;0.82;;;;;;;14.79;75.80;102534.16;5058371;27;96578;-30
2022/09/20 08:38:58;;;;;;;3.85;0.70;;;;;;;14.75;75.76;102531.69;5040084;27;96857;-30
2022/09/20 08:41:29;;;;;;;0.75;0.28;;;;;;;14.68;76.45;102536.56;5039426;27;100807;-29
2022/09/20 08:44:24;;;;;;;0.85;0.43;;;;;;;14.65;76.34;102539.47;5058558;27;97256;-30
2022/09/20 08:47:01;;;;;;;0.73;0.30;;;;;;;14.59;76.48;102535.22;5039704;27;96558;-29
2022/09/20 08:49:28;;;;;;;3.03;0.50;;;;;;;14.53;76.04;102540.94;5035484;27;96781;-30
2022/09/20 08:51:56;;;;;;;0.57;0.28;;;;;;;14.45;75.82;102541.34;5036444;27;101503;-30
2022/09/20 08:54:23;;;;;;;0.50;0.30;;;;;;;14.40;75.45;102543.41;5036252;27;100978;-31
2022/09/20 08:56:49;;;;;;;4.05;0.73;;;;;;;14.33;75.56;102539.22;5036310;27;96593;-30
2022/09/20 08:59:18;;;;;;;0.68;0.30;;;;;;;14.35;75.29;102541.88;5036852;27;96839;-29
2022/09/20 09:01:48;;;;;;;0.90;0.38;;;;;;;14.36;75.60;102544.53;5036173;27;100893;-30
2022/09/20 09:04:20;;;;;;;0.68;0.30;;;;;;;14.34;75.11;102540.09;5054555;27;99344;-29
2022/09/20 09:06:46;;;;;;;1.75;0.40;;;;;;;14.34;75.30;102540.09;5054208;27;96676;-30
2022/09/20 09:09:26;;;;;;;1.52;0.50;;;;;;;14.34;74.83;102541.00;5036296;27;96936;-31
2022/09/20 09:11:54;;;;;;;1.38;0.50;;;;;;;14.40;74.96;102551.59;5035845;27;100802;-29
2022/09/20 09:14:47;;;;;;;3.55;0.63;;;;;;;14.50;74.40;102546.56;5054285;27;99647;-30
2022/09/20 09:17:17;;;;;;;0.68;0.45;;;;;;;14.57;74.44;102548.03;5054814;27;96602;-30
2022/09/20 09:19:50;;;;;;;3.53;0.30;;;;;;;14.55;73.32;102554.53;5053654;27;96719;-30
2022/09/20 09:22:24;;;;;;;0.90;0.38;;;;;;;14.51;73.62;102558.34;5036018;27;101620;-32
2022/09/20 09:25:33;;;;;;;0.77;0.32;;;;;;;14.48;73.57;102555.78;5036405;27;101208;-30
2022/09/20 09:28:07;;;;;;;0.10;0.10;;;;;;;14.55;73.03;102558.16;4935119;28;96834;-31
2022/09/20 09:30:35;;;;;;;3.60;0.47;;;;;;;14.78;73.71;102556.97;4952601;28;96849;-30
2022/09/20 09:33:25;;;;;;;1.50;0.50;;;;;;;14.93;72.59;102558.00;4992219;27;101176;-29
2022/09/20 09:35:57;;;;;;;1.42;0.52;;;;;;;15.06;72.44;102555.50;5053973;27;99736;-30
2022/09/20 09:38:26;;;;;;;1.45;0.50;;;;;;;15.20;72.75;102555.66;5035973;27;96562;-30
2022/09/20 09:41:00;;;;;;;0.65;0.32;;;;;;;15.37;72.58;102560.19;5035885;27;96812;-31
2022/09/20 09:43:29;;;;;;;1.55;0.25;;;;;;;15.50;71.63;102549.50;5035658;27;100898;-29
2022/09/20 09:46:14;;;;;;;0.50;0.40;;;;;;;15.81;70.62;102556.03;5035606;27;100880;-31
2022/09/20 09:48:40;;;;;;;1.92;0.35;;;;;;;16.00;69.05;102556.75;5054026;27;96744;-30
2022/09/20 09:51:14;;;;;;;3.67;0.60;;;;;;;16.27;68.34;102545.19;5054169;27;97824;-31
2022/09/20 09:53:41;;;;;;;1.00;0.20;;;;;;;16.67;68.08;102553.75;5035268;27;101375;-30
2022/09/20 09:56:27;;;;;;;0.80;0.30;;;;;;;16.91;65.07;102552.28;5035384;27;100784;-29
2022/09/20 09:58:57;;;;;;;0.45;0.20;;;;;;;16.72;66.91;102554.38;5052914;27;96468;-30
2022/09/20 10:01:39;;;;;;;3.38;0.75;;;;;;;17.02;66.37;102558.97;5053641;27;96818;-31
2022/09/20 10:04:16;;;;;;;1.98;0.57;;;;;;;17.20;66.45;102563.31;5035327;27;101262;-31
2022/09/20 10:06:51;;;;;;;2.13;0.20;;;;;;;17.07;67.22;102555.00;5035258;27;100723;-31
2022/09/20 10:09:17;;;;;;;2.83;0.50;;;;;;;16.82;66.95;102555.59;5053634;27;96682;-30
2022/09/20 10:12:00;;;;;;;1.55;0.35;;;;;;;16.67;67.28;102556.50;5053725;27;96727;-30
2022/09/20 10:14:58;;;;;;;1.60;0.45;;;;;;;17.13;66.71;102557.31;5035213;27;101077;-30
2022/09/20 10:17:56;;;;;;;0.47;0.28;;;;;;;17.67;63.91;102551.22;5014141;27;97561;-31
2022/09/20 10:20:45;;;;;;;0.65;0.25;;;;;;;18.05;64.16;102547.88;5034487;27;96813;-30
2022/09/20 10:23:19;;;;;;;3.17;0.32;;;;;;;18.42;62.61;102535.31;5035172;27;96854;-31
2022/09/20 10:26:21;;;;;;;1.05;0.40;;;;;;;18.58;60.99;102537.00;5052854;27;97622;-30
2022/09/20 10:28:58;;;;;;;1.10;0.28;;;;;;;18.98;61.15;102539.78;5053285;27;97911;-29
2022/09/20 10:31:36;;;;;;;2.92;0.45;;;;;;;19.20;60.20;102536.38;5053781;27;96672;-30
2022/09/20 10:34:14;;;;;;;2.85;0.40;;;;;;;18.74;61.40;102537.72;5053122;27;96575;-31
2022/09/20 10:36:54;;;;;;;0.38;0.17;;;;;;;18.34;61.91;102542.28;5053303;27;98053;-30
2022/09/20 10:39:26;;;;;;;0.90;0.40;;;;;;;17.96;61.58;102542.97;5034886;27;101081;-30
2022/09/20 10:45:11;;;;;;;3.22;0.52;;;;;;;17.24;64.47;102547.59;5053377;27;96873;-30
2022/09/20 10:47:51;;;;;;;1.35;0.52;;;;;;;16.83;64.27;102557.38;5034690;27;101143;-30
2022/09/20 10:50:44;;;;;;;1.70;0.50;;;;;;;16.41;65.27;102568.97;5034595;27;100647;-30
2022/09/20 10:53:27;;;;;;;2.78;0.70;;;;;;;16.19;67.66;102563.88;5034371;27;97116;-31
2022/09/20 10:56:12;;;;;;;1.67;0.65;;;;;;;16.00;67.25;102564.06;5034774;27;96855;-31
2022/09/20 10:58:46;;;;;;;1.20;0.50;;;;;;;15.84;68.27;102569.50;5052717;27;99727;-31
2022/09/20 11:01:24;;;;;;;2.55;0.57;;;;;;;15.79;68.55;102574.34;5053183;27;97964;-30
2022/09/20 11:04:23;;;;;;;2.83;0.45;;;;;;;15.74;68.41;102577.34;5034244;27;96693;-33
2022/09/20 11:07:03;;;;;;;0.63;0.52;;;;;;;15.62;68.75;102578.88;5052901;27;96555;-30
2022/09/20 11:09:38;;;;;;;0.35;0.30;;;;;;;15.60;68.14;102574.47;5052519;27;99346;-30
2022/09/20 11:12:25;;;;;;;0.90;0.40;;;;;;;15.77;67.83;102574.44;5033664;27;100687;-30
2022/09/20 11:15:15;;;;;;;1.75;0.52;;;;;;;16.14;67.09;102578.69;5034340;27;96656;-30
2022/09/20 11:17:48;;;;;;;1.15;0.32;;;;;;;16.65;66.45;102572.13;5034463;27;96903;-30
2022/09/20 11:20:50;;;;;;;0.93;0.47;;;;;;;17.18;64.48;102579.84;5051476;27;97778;-30
2022/09/20 11:23:41;;;;;;;1.38;0.60;;;;;;;17.65;63.39;102576.94;5035155;27;98434;-33
2022/09/20 11:26:13;;;;;;;2.15;0.73;;;;;;;17.96;62.49;102581.38;5034238;27;96559;-34
2022/09/20 11:28:43;;;;;;;0.82;0.60;;;;;;;18.25;62.62;102584.94;5033977;27;96866;-31
2022/09/20 11:31:37;;;;;;;1.67;0.85;;;;;;;18.54;61.41;102579.34;5033631;27;101045;-32
2022/09/20 11:34:24;;;;;;;0.55;0.35;;;;;;;18.83;61.15;102570.06;5033900;27;101510;-30
2022/09/20 11:36:57;;;;;;;1.17;0.30;;;;;;;18.98;60.18;102579.09;5033991;27;96628;-30
2022/09/20 11:39:45;;;;;;;1.15;0.50;;;;;;;19.14;59.85;102565.16;5052447;27;96758;-31
2022/09/20 11:42:15;;;;;;;4.88;1.00;;;;;;;19.38;59.67;102562.53;5033922;27;101516;-30
2022/09/20 11:44:41;;;;;;;1.27;0.45;;;;;;;19.57;59.28;102564.84;5033828;27;100877;-30
2022/09/20 11:47:19;;;;;;;3.15;0.60;;;;;;;19.75;57.96;102573.66;5033468;27;96724;-31
2022/09/20 11:50:31;;;;;;;1.23;0.60;;;;;;;19.66;57.50;102568.78;5033720;27;96758;-29
2022/09/20 11:53:35;;;;;;;3.88;0.57;;;;;;;18.98;55.88;102572.72;5033759;27;101404;-32
2022/09/20 11:56:07;;;;;;;2.08;0.70;;;;;;;18.45;59.83;102575.38;5050867;27;98039;-30
2022/09/20 11:58:45;;;;;;;1.08;0.40;;;;;;;18.16;60.36;102569.97;5052240;27;96734;-30
2022/09/20 12:01:12;;;;;;;1.98;0.60;;;;;;;17.97;61.27;102574.88;5033733;27;96668;-32
2022/09/20 12:03:43;;;;;;;5.80;0.70;;;;;;;17.76;62.25;102574.41;5033675;27;101065;-30
2022/09/20 12:06:19;;;;;;;2.72;0.68;;;;;;;17.50;62.18;102582.44;5033836;27;101315;-30
2022/09/20 12:08:49;;;;;;;1.40;0.57;;;;;;;17.31;62.84;102571.75;5033629;27;97338;-30
2022/09/20 12:11:15;;;;;;;1.77;0.35;;;;;;;17.17;63.28;102571.72;5033610;27;96932;-30
2022/09/20 12:13:51;;;;;;;3.28;0.75;;;;;;;17.05;64.60;102567.00;5050939;27;98968;-31
2022/09/20 12:16:41;;;;;;;1.42;0.63;;;;;;;17.01;64.25;102573.63;5052087;27;97966;-31
2022/09/20 12:19:31;;;;;;;1.70;0.55;;;;;;;17.03;63.33;102582.66;5033129;27;96785;-31